Verstervig, Denmark
Current Conditions -  °F | °C
As of 11:55 AM on Friday 21 Nov 2014 (Local Time) from EKKA Reporting Station
Moderate Fog Moderate Fog  
Wind Chill:   Ceiling: 3800
Heat Index:   Visibility: 0.43mi
Dew Point:   Wind: 0mph
Humidity: 93%   Direction: NA
Pressure: 30.33"   Gusts: NA
Location:  56.7°N, 8.22°E
Report Text: EKKA 211055Z 00000KT 0700 R09/1300D R27/1900N FZFG SCT001BKN038 02/01 Q1027 R27L/390095 TEMPO 2500 BKN001
Loading
Personal Weather Stations






























Interactive Weather Map New forecast layout! Learn more

10-Day Weather Forecast

Advertisements
Track Severe Weather on mobile